createdAt,value
2022-11-24T00:02:11.974Z,7.82
2022-11-24T00:04:40.303Z,8.75
2022-11-24T00:07:06.895Z,8.98
2022-11-24T00:09:33.414Z,8.73
2022-11-24T00:12:00.087Z,9.20
2022-11-24T00:14:26.809Z,9.52
2022-11-24T00:16:53.384Z,7.45
2022-11-24T00:19:20.150Z,8.98
2022-11-24T00:21:48.106Z,8.75
2022-11-24T00:24:14.651Z,9.77
2022-11-24T00:26:41.185Z,10.30
2022-11-24T00:29:09.330Z,10.68
2022-11-24T00:31:37.555Z,10.85
2022-11-24T00:34:06.147Z,11.13
2022-11-24T00:36:34.895Z,11.70
2022-11-24T00:39:06.359Z,10.82
2022-11-24T00:41:33.385Z,11.40
2022-11-24T00:44:00.555Z,11.50
2022-11-24T00:46:27.570Z,8.57
2022-11-24T00:48:54.553Z,9.27
2022-11-24T00:51:23.684Z,10.82
2022-11-24T00:53:50.202Z,10.10
2022-11-24T00:56:18.066Z,11.95
2022-11-24T00:58:44.649Z,11.55
2022-11-24T01:01:13.092Z,9.33
2022-11-24T01:03:39.889Z,10.20
2022-11-24T01:06:08.095Z,10.48
2022-11-24T01:08:36.630Z,8.90
2022-11-24T01:11:10.546Z,8.27
2022-11-24T01:13:38.589Z,9.33
2022-11-24T01:16:05.636Z,9.93
2022-11-24T01:18:32.236Z,10.50
2022-11-24T01:20:58.973Z,10.77
2022-11-24T01:23:25.641Z,9.38
2022-11-24T01:25:52.159Z,11.27
2022-11-24T01:28:18.660Z,10.23
2022-11-24T01:30:57.148Z,13.13
2022-11-24T01:33:23.686Z,9.32
2022-11-24T01:35:50.339Z,11.52
2022-11-24T01:38:17.032Z,10.80
2022-11-24T01:40:43.831Z,14.63
2022-11-24T01:43:16.182Z,11.25
2022-11-24T01:45:42.771Z,11.38
2022-11-24T01:48:22.070Z,13.85
2022-11-24T01:50:59.079Z,10.37
2022-11-24T01:53:25.805Z,13.30
2022-11-24T01:55:53.230Z,15.07
2022-11-24T01:58:24.036Z,12.27
2022-11-24T02:00:52.280Z,15.63
2022-11-24T02:03:25.278Z,14.97
2022-11-24T02:06:00.585Z,15.18
2022-11-24T02:08:33.422Z,11.48
2022-11-24T02:11:05.178Z,11.77
2022-11-24T02:13:33.300Z,15.60
2022-11-24T02:16:00.589Z,12.00
2022-11-24T02:18:29.008Z,10.80
2022-11-24T02:20:55.988Z,11.25
2022-11-24T02:23:24.915Z,13.45
2022-11-24T02:26:02.340Z,10.52
2022-11-24T02:28:31.429Z,10.33
2022-11-24T02:30:59.685Z,12.65
2022-11-24T02:33:26.967Z,11.27
2022-11-24T02:35:54.224Z,17.13
2022-11-24T02:38:29.589Z,13.90
2022-11-24T02:40:56.324Z,12.03
2022-11-24T02:43:24.189Z,13.43
2022-11-24T02:45:52.257Z,13.25
2022-11-24T02:48:18.799Z,12.00
2022-11-24T02:50:45.286Z,12.23
2022-11-24T02:53:12.082Z,14.47
2022-11-24T02:55:38.625Z,13.07
2022-11-24T02:58:05.127Z,11.73
2022-11-24T03:00:31.663Z,13.85
2022-11-24T03:02:59.861Z,13.95
2022-11-24T03:05:26.397Z,14.43
2022-11-24T03:07:52.928Z,12.25
2022-11-24T03:10:19.645Z,14.77
2022-11-24T03:12:46.151Z,17.40
2022-11-24T03:15:12.644Z,12.75
2022-11-24T03:17:39.155Z,12.17
2022-11-24T03:20:08.858Z,13.45
2022-11-24T03:22:36.883Z,13.23
2022-11-24T03:25:04.022Z,14.13
2022-11-24T03:27:30.947Z,18.85
2022-11-24T03:29:57.493Z,12.83
2022-11-24T03:32:24.006Z,11.23
2022-11-24T03:34:50.653Z,13.60
2022-11-24T03:37:18.563Z,15.18
2022-11-24T03:39:45.224Z,12.65
2022-11-24T03:42:11.939Z,10.63
2022-11-24T03:44:38.426Z,16.83
2022-11-24T03:47:05.162Z,11.45
2022-11-24T03:49:31.906Z,12.98
2022-11-24T03:52:02.590Z,16.75
2022-11-24T03:54:33.262Z,12.40
2022-11-24T03:57:00.167Z,13.15
2022-11-24T03:59:26.672Z,12.95
2022-11-24T04:01:53.555Z,14.98
2022-11-24T04:04:20.151Z,17.40
2022-11-24T04:06:46.670Z,17.60
2022-11-24T04:09:13.337Z,17.40
2022-11-24T04:11:41.201Z,13.07
2022-11-24T04:14:13.186Z,11.38
2022-11-24T04:16:40.165Z,11.63
2022-11-24T04:19:06.705Z,11.27
2022-11-24T04:21:33.251Z,15.48
2022-11-24T04:23:59.772Z,12.27
2022-11-24T04:26:26.291Z,14.40
2022-11-24T04:28:54.301Z,9.63
2022-11-24T04:31:20.940Z,15.00
2022-11-24T04:33:47.573Z,11.85
2022-11-24T04:36:14.275Z,14.02
2022-11-24T04:39:23.083Z,14.88
2022-11-24T04:41:27.261Z,9.80
2022-11-24T04:43:55.095Z,9.30
2022-11-24T04:46:21.810Z,15.05
2022-11-24T04:48:48.339Z,12.25
2022-11-24T04:51:15.405Z,10.27
2022-11-24T04:53:42.191Z,10.82
2022-11-24T04:56:09.447Z,13.47
2022-11-24T04:58:36.098Z,14.23
2022-11-24T05:01:06.996Z,11.23
2022-11-24T05:03:33.593Z,14.43
2022-11-24T05:06:00.156Z,12.45
2022-11-24T05:08:26.674Z,12.27
2022-11-24T05:10:53.227Z,11.65
2022-11-24T05:13:19.914Z,12.00
2022-11-24T05:15:46.643Z,12.55
2022-11-24T05:18:14.865Z,11.55
2022-11-24T05:20:41.906Z,11.10
2022-11-24T05:23:08.677Z,12.80
2022-11-24T05:25:35.595Z,10.65
2022-11-24T05:28:04.771Z,12.55
2022-11-24T05:30:32.311Z,18.33
2022-11-24T05:32:59.057Z,13.97
2022-11-24T05:35:26.959Z,13.40
2022-11-24T05:37:53.612Z,13.52
2022-11-24T05:40:20.169Z,11.63
2022-11-24T05:42:48.219Z,11.65
2022-11-24T05:45:17.565Z,16.17
2022-11-24T05:47:44.358Z,11.63
2022-11-24T05:50:12.938Z,12.52
2022-11-24T05:52:40.943Z,13.38
2022-11-24T05:55:08.566Z,14.98
2022-11-24T05:57:35.491Z,14.00
2022-11-24T06:00:02.806Z,11.55
2022-11-24T06:02:29.638Z,17.00
2022-11-24T06:04:56.210Z,12.65
2022-11-24T06:07:22.855Z,9.30
2022-11-24T06:09:50.801Z,16.37
2022-11-24T06:12:17.511Z,10.73
2022-11-24T06:14:44.063Z,14.32
2022-11-24T06:17:10.668Z,12.30
2022-11-24T06:19:41.706Z,13.13
2022-11-24T06:22:08.691Z,11.80
2022-11-24T06:24:35.407Z,12.77
2022-11-24T06:27:03.494Z,14.70
2022-11-24T06:29:30.240Z,12.65
2022-11-24T06:31:56.910Z,13.15
2022-11-24T06:34:23.757Z,11.13
2022-11-24T06:36:50.339Z,13.63
2022-11-24T06:39:16.879Z,11.23
2022-11-24T06:41:43.453Z,8.27
2022-11-24T06:44:11.410Z,13.30
2022-11-24T06:46:38.034Z,14.97
2022-11-24T06:49:04.699Z,27.90
2022-11-24T06:51:31.338Z,16.42
2022-11-24T06:53:58.086Z,16.65
2022-11-24T06:56:24.813Z,11.68
2022-11-24T06:58:53.382Z,12.57
2022-11-24T07:01:23.019Z,11.18
2022-11-24T07:03:50.913Z,12.48
2022-11-24T07:06:18.956Z,13.63
2022-11-24T07:08:45.532Z,12.07
2022-11-24T07:11:14.745Z,13.00
2022-11-24T07:13:41.826Z,13.23
2022-11-24T07:16:15.900Z,12.82
2022-11-24T07:18:45.474Z,10.57
2022-11-24T07:21:12.562Z,13.63
2022-11-24T07:23:39.359Z,18.00
2022-11-24T07:26:07.573Z,15.63
2022-11-24T07:28:34.701Z,13.35
2022-11-24T07:31:05.642Z,14.13
2022-11-24T07:33:32.133Z,16.88
2022-11-24T07:36:01.515Z,12.53
2022-11-24T07:38:29.284Z,13.73
2022-11-24T07:41:00.151Z,14.60
2022-11-24T07:43:26.885Z,13.95
2022-11-24T07:45:53.469Z,13.77
2022-11-24T07:48:20.427Z,11.90
2022-11-24T07:50:49.950Z,11.48
2022-11-24T07:53:22.107Z,17.42
2022-11-24T07:55:53.649Z,10.88
2022-11-24T07:58:20.223Z,12.05
2022-11-24T08:00:46.842Z,11.30
2022-11-24T08:03:13.511Z,20.38
2022-11-24T08:05:54.495Z,17.60
2022-11-24T08:08:27.968Z,14.68
2022-11-24T08:10:54.559Z,16.20
2022-11-24T08:13:21.106Z,12.07
2022-11-24T08:15:47.660Z,15.70
2022-11-24T08:18:14.272Z,14.80
2022-11-24T08:20:40.906Z,13.93
2022-11-24T08:23:07.649Z,14.32
2022-11-24T08:25:35.547Z,16.77
2022-11-24T08:28:03.944Z,14.57
2022-11-24T08:30:30.558Z,17.38
2022-11-24T08:32:58.715Z,20.30
2022-11-24T08:35:25.294Z,13.98
2022-11-24T08:37:51.914Z,17.83
2022-11-24T08:40:18.511Z,12.80
2022-11-24T08:42:46.631Z,13.10
2022-11-24T08:45:21.036Z,13.35
2022-11-24T08:47:52.098Z,11.23
2022-11-24T08:50:18.657Z,14.57
2022-11-24T08:52:45.305Z,13.50
2022-11-24T08:55:12.011Z,13.98
2022-11-24T08:57:38.641Z,12.35
2022-11-24T09:00:08.133Z,16.08
2022-11-24T09:02:34.812Z,10.40
2022-11-24T09:05:01.382Z,14.40
2022-11-24T09:07:27.972Z,16.80
2022-11-24T09:09:54.559Z,15.82
2022-11-24T09:12:21.142Z,13.68
2022-11-24T09:14:47.893Z,13.07
2022-11-24T09:17:15.803Z,12.32
2022-11-24T09:19:42.339Z,13.98
2022-11-24T09:22:08.846Z,14.60
2022-11-24T09:24:35.437Z,11.63
2022-11-24T09:27:02.039Z,10.87
2022-11-24T09:29:28.542Z,14.65
2022-11-24T09:31:55.094Z,12.52
2022-11-24T09:34:22.982Z,11.68
2022-11-24T09:36:49.520Z,13.40
2022-11-24T09:39:16.058Z,12.10
2022-11-24T09:42:02.186Z,11.77
2022-11-24T09:44:58.501Z,12.40
2022-11-24T09:47:38.267Z,11.05
2022-11-24T09:50:13.762Z,14.48
2022-11-24T09:52:46.307Z,9.53
2022-11-24T09:55:41.956Z,11.82
2022-11-24T09:58:24.424Z,13.77
2022-11-24T10:00:53.567Z,12.43
2022-11-24T10:03:26.129Z,11.48
2022-11-24T10:05:54.699Z,12.47
2022-11-24T10:08:39.694Z,13.25
2022-11-24T10:11:13.779Z,13.50
2022-11-24T10:14:03.363Z,9.80
2022-11-24T10:16:43.136Z,14.57
2022-11-24T10:19:21.484Z,11.67
2022-11-24T10:22:03.258Z,12.07
2022-11-24T10:25:03.287Z,11.10
2022-11-24T10:27:35.988Z,18.85
2022-11-24T10:30:11.831Z,13.52
2022-11-24T10:32:44.093Z,13.03
2022-11-24T10:35:16.062Z,14.55
2022-11-24T10:37:52.970Z,13.00
2022-11-24T10:40:59.035Z,12.80
2022-11-24T10:43:15.715Z,11.65
2022-11-24T10:45:42.247Z,9.50
2022-11-24T10:48:22.562Z,10.32
2022-11-24T10:50:49.304Z,10.00
2022-11-24T10:53:23.083Z,12.65
2022-11-24T10:56:04.601Z,11.32
2022-11-24T10:58:37.772Z,13.27
2022-11-24T11:01:21.311Z,9.45
2022-11-24T11:03:49.708Z,11.70
2022-11-24T11:06:22.317Z,8.85
2022-11-24T11:09:16.117Z,8.77
2022-11-24T11:11:42.778Z,8.60
2022-11-24T11:14:11.018Z,10.50
2022-11-24T11:16:39.680Z,8.98
2022-11-24T11:19:48.478Z,8.05
2022-11-24T11:22:23.448Z,7.82
2022-11-24T11:25:04.924Z,7.97
2022-11-24T11:27:31.567Z,8.25
2022-11-24T11:35:52.619Z,10.60
2022-11-24T11:38:20.573Z,9.47
2022-11-24T11:40:50.459Z,10.77
2022-11-24T11:43:24.670Z,10.63
2022-11-24T11:45:59.997Z,9.20
2022-11-24T11:48:33.715Z,10.07
2022-11-24T11:51:26.790Z,10.57
2022-11-24T11:54:04.167Z,9.80
2022-11-24T11:56:35.094Z,12.45
2022-11-24T11:59:29.972Z,10.57
2022-11-24T12:02:34.751Z,9.93
2022-11-24T12:05:05.347Z,11.70
2022-11-24T12:07:52.458Z,11.05
2022-11-24T12:10:28.484Z,12.45
2022-11-24T12:13:11.267Z,8.80
2022-11-24T12:15:41.304Z,7.90
2022-11-24T12:18:55.899Z,14.67
2022-11-24T12:21:18.927Z,12.88
2022-11-24T12:24:02.065Z,7.82
2022-11-24T12:26:39.269Z,7.03
2022-11-24T12:29:30.095Z,7.22
2022-11-24T12:32:07.992Z,9.93
2022-11-24T12:34:48.437Z,5.60
2022-11-24T12:37:47.621Z,4.85
2022-11-24T12:40:31.374Z,7.45
2022-11-24T12:43:08.016Z,5.80
2022-11-24T12:45:42.965Z,7.17
2022-11-24T12:48:30.103Z,5.10
2022-11-24T12:50:58.161Z,6.38
2022-11-24T12:53:28.444Z,7.07
2022-11-24T12:55:58.743Z,6.25
2022-11-24T12:58:32.666Z,5.40
2022-11-24T13:01:16.526Z,6.72
2022-11-24T13:03:52.643Z,9.15
2022-11-24T13:06:24.056Z,7.85
2022-11-24T13:08:50.966Z,7.63
2022-11-24T13:11:38.518Z,7.20
2022-11-24T13:14:11.536Z,9.85
2022-11-24T13:17:13.468Z,9.85
2022-11-24T13:19:37.160Z,9.60
2022-11-24T13:22:23.505Z,9.23
2022-11-24T13:25:13.434Z,8.07
2022-11-24T13:27:47.075Z,5.93
2022-11-24T13:30:50.142Z,7.88
2022-11-24T13:33:32.294Z,6.32
2022-11-24T13:36:30.750Z,6.13
2022-11-24T13:38:58.197Z,6.57
2022-11-24T13:42:07.406Z,5.95
2022-11-24T13:44:49.638Z,8.20
2022-11-24T13:47:39.710Z,9.20
2022-11-24T13:50:44.467Z,6.97
2022-11-24T13:53:18.232Z,6.17
2022-11-24T13:55:56.775Z,7.22
2022-11-24T13:58:29.672Z,7.10
2022-11-24T14:01:12.982Z,8.38
2022-11-24T14:04:07.026Z,8.10
2022-11-24T14:06:35.880Z,7.30
2022-11-24T14:09:18.152Z,8.50
2022-11-24T14:11:54.842Z,7.78
2022-11-24T14:14:26.251Z,5.55
2022-11-24T14:17:08.475Z,11.20
2022-11-24T14:19:35.222Z,8.57
2022-11-24T14:22:01.981Z,9.82
2022-11-24T14:24:35.445Z,8.00
2022-11-24T14:27:04.894Z,8.27
2022-11-24T14:29:31.476Z,8.10
2022-11-24T14:32:00.053Z,7.77
2022-11-24T14:34:29.689Z,9.10
2022-11-24T14:36:58.021Z,9.45
2022-11-24T14:39:26.006Z,7.78
2022-11-24T14:41:58.810Z,9.90
2022-11-24T14:44:28.329Z,9.90
2022-11-24T14:47:06.183Z,9.40
2022-11-24T14:49:40.061Z,7.80
2022-11-24T14:52:12.954Z,8.70
2022-11-24T14:54:46.660Z,10.13
2022-11-24T14:57:23.565Z,7.67
2022-11-24T15:00:16.222Z,7.95
2022-11-24T15:02:44.316Z,9.30
2022-11-24T15:05:12.305Z,8.85
2022-11-24T15:07:40.865Z,9.68
2022-11-24T15:10:20.458Z,6.33
2022-11-24T15:12:52.055Z,9.00
2022-11-24T15:15:20.746Z,11.55
2022-11-24T15:17:49.507Z,7.72
2022-11-24T15:20:25.207Z,14.73
2022-11-24T15:23:20.422Z,20.90
2022-11-24T15:25:47.026Z,17.02
2022-11-24T15:28:13.543Z,16.52
2022-11-24T15:30:40.241Z,17.33
2022-11-24T15:33:13.739Z,16.27
2022-11-24T15:35:45.422Z,16.23
2022-11-24T15:38:12.635Z,11.52
2022-11-24T15:40:40.410Z,13.43
2022-11-24T15:43:25.982Z,10.60
2022-11-24T15:45:52.542Z,12.07
2022-11-24T15:48:19.321Z,10.77
2022-11-24T15:50:48.100Z,12.75
2022-11-24T15:53:18.937Z,9.18
2022-11-24T15:55:45.509Z,11.27
2022-11-24T15:58:13.252Z,9.63
2022-11-24T16:00:40.468Z,11.47
2022-11-24T16:03:38.307Z,9.82
2022-11-24T16:05:57.007Z,12.30
2022-11-24T16:08:23.645Z,11.68
2022-11-24T16:10:50.404Z,10.02
2022-11-24T16:13:17.009Z,10.93
2022-11-24T16:15:44.897Z,10.60
2022-11-24T16:18:11.530Z,15.75
2022-11-24T16:20:38.074Z,13.00
2022-11-24T16:23:06.175Z,12.07
2022-11-24T16:25:32.664Z,12.20
2022-11-24T16:27:59.377Z,11.63
2022-11-24T16:30:26.052Z,12.95
2022-11-24T16:32:52.644Z,11.45
2022-11-24T16:35:19.220Z,14.02
2022-11-24T16:37:45.960Z,14.47
2022-11-24T16:40:14.250Z,18.38
2022-11-24T16:42:40.897Z,18.00
2022-11-24T16:45:10.471Z,17.45
2022-11-24T16:47:39.619Z,17.02
2022-11-24T16:50:07.831Z,19.30
2022-11-24T16:52:36.626Z,18.27
2022-11-24T16:55:03.573Z,16.70
2022-11-24T16:57:31.842Z,15.15
2022-11-24T16:59:58.500Z,12.65
2022-11-24T17:02:25.475Z,13.20
2022-11-24T17:04:52.373Z,11.13
2022-11-24T17:07:19.746Z,13.98
2022-11-24T17:09:46.616Z,9.93
2022-11-24T17:12:13.368Z,12.35
2022-11-24T17:14:41.600Z,16.23
2022-11-24T17:17:08.320Z,12.63
2022-11-24T17:19:35.110Z,15.43
2022-11-24T17:22:01.902Z,14.68
2022-11-24T17:24:28.635Z,14.45
2022-11-24T17:26:55.538Z,12.60
2022-11-24T17:29:22.384Z,17.70
2022-11-24T17:31:50.593Z,26.00
2022-11-24T17:34:17.587Z,18.52
2022-11-24T17:36:44.442Z,15.88
2022-11-24T17:39:11.494Z,14.20
2022-11-24T17:41:38.384Z,19.33
2022-11-24T17:44:05.370Z,17.08
2022-11-24T17:46:32.096Z,18.27
2022-11-24T17:49:00.395Z,25.63
2022-11-24T17:51:27.413Z,19.53
2022-11-24T17:53:55.388Z,22.20
2022-11-24T17:56:24.146Z,20.88
2022-11-24T17:58:52.928Z,15.52
2022-11-24T18:01:19.979Z,17.60
2022-11-24T18:03:50.467Z,10.03
2022-11-24T18:06:21.681Z,17.02
2022-11-24T18:08:48.194Z,18.92
2022-11-24T18:11:17.203Z,39.85
2022-11-24T18:14:01.134Z,17.20
2022-11-24T18:16:28.897Z,14.27
2022-11-24T18:19:07.385Z,12.38
2022-11-24T18:21:37.121Z,31.27
2022-11-24T18:24:03.976Z,23.23
2022-11-24T18:26:30.550Z,13.20
2022-11-24T18:28:57.107Z,12.23
2022-11-24T18:31:23.742Z,11.25
2022-11-24T18:33:50.386Z,10.02
2022-11-24T18:36:18.909Z,10.98
2022-11-24T18:38:46.766Z,15.45
2022-11-24T18:41:14.644Z,12.40
2022-11-24T18:43:41.746Z,9.63
2022-11-24T18:46:10.883Z,9.40
2022-11-24T18:48:37.376Z,12.68
2022-11-24T18:51:03.991Z,10.13
2022-11-24T18:53:30.557Z,13.57
2022-11-24T18:56:00.470Z,8.95
2022-11-24T18:58:28.309Z,12.90
2022-11-24T19:00:55.743Z,10.52
2022-11-24T19:03:22.425Z,9.68
2022-11-24T19:05:48.996Z,13.23
2022-11-24T19:08:15.477Z,9.75
2022-11-24T19:10:41.995Z,13.02
2022-11-24T19:13:09.881Z,9.23
2022-11-24T19:15:36.595Z,9.50
2022-11-24T19:18:03.237Z,10.40
2022-11-24T19:20:29.805Z,7.68
2022-11-24T19:22:56.305Z,7.80
2022-11-24T19:25:22.946Z,10.55
2022-11-24T19:27:49.497Z,11.38
2022-11-24T19:30:17.826Z,9.73
2022-11-24T19:32:44.364Z,9.00
2022-11-24T19:35:11.195Z,8.95
2022-11-24T19:37:37.758Z,10.55
2022-11-24T19:40:05.395Z,6.95
2022-11-24T19:42:31.935Z,9.97
2022-11-24T19:44:58.463Z,9.65
2022-11-24T19:47:26.419Z,11.10
2022-11-24T19:49:52.954Z,10.10
2022-11-24T19:52:19.521Z,7.72
2022-11-24T19:54:46.179Z,8.37
2022-11-24T19:57:12.768Z,8.93
2022-11-24T19:59:39.318Z,10.15
2022-11-24T20:02:06.179Z,13.55
2022-11-24T20:04:34.391Z,11.05
2022-11-24T20:07:01.189Z,9.80
2022-11-24T20:09:27.755Z,10.40
2022-11-24T20:11:54.499Z,11.45
2022-11-24T20:14:21.168Z,7.43
2022-11-24T20:16:48.038Z,9.55
2022-11-24T20:19:16.457Z,11.27
2022-11-24T20:21:45.251Z,9.38
2022-11-24T20:24:13.857Z,10.23
2022-11-24T20:26:42.590Z,8.40
2022-11-24T20:29:11.028Z,8.15
2022-11-24T20:31:40.139Z,8.43
2022-11-24T20:34:07.711Z,8.40
2022-11-24T20:36:37.809Z,9.10
2022-11-24T20:39:08.702Z,9.63
2022-11-24T20:41:36.453Z,12.32
2022-11-24T20:44:05.266Z,10.73
2022-11-24T20:46:34.255Z,11.85
2022-11-24T20:49:01.497Z,10.48
2022-11-24T20:51:30.327Z,10.90
2022-11-24T20:53:58.474Z,13.48
2022-11-24T20:56:28.603Z,10.03
2022-11-24T20:58:55.442Z,12.98
2022-11-24T21:01:24.788Z,11.55
2022-11-24T21:03:53.750Z,17.48
2022-11-24T21:06:20.410Z,16.90
2022-11-24T21:08:46.933Z,18.40
2022-11-24T21:11:14.661Z,19.90
2022-11-24T21:13:44.583Z,17.85
2022-11-24T21:16:12.510Z,19.35
2022-11-24T21:18:39.217Z,21.38
2022-11-24T21:21:06.473Z,22.20
2022-11-24T21:23:36.925Z,17.60
2022-11-24T21:26:05.695Z,19.38
2022-11-24T21:28:33.561Z,20.88
2022-11-24T21:31:04.298Z,22.38
2022-11-24T21:33:31.045Z,22.27
2022-11-24T21:36:01.075Z,19.27
2022-11-24T21:38:27.678Z,21.40
2022-11-24T21:40:54.253Z,19.77
2022-11-24T21:43:20.907Z,18.75
2022-11-24T21:45:47.487Z,19.73
2022-11-24T21:48:15.564Z,17.65
2022-11-24T21:50:42.121Z,20.27
2022-11-24T21:53:08.649Z,16.40
2022-11-24T21:55:35.158Z,19.65
2022-11-24T21:58:01.724Z,17.80
2022-11-24T22:00:28.252Z,19.42
2022-11-24T22:02:54.795Z,17.75
2022-11-24T22:05:22.726Z,21.58
2022-11-24T22:07:49.355Z,17.45
2022-11-24T22:10:16.182Z,20.13
2022-11-24T22:12:42.671Z,18.92
2022-11-24T22:15:09.966Z,19.83
2022-11-24T22:17:36.548Z,20.98
2022-11-24T22:20:03.455Z,17.67
2022-11-24T22:22:31.399Z,20.07
2022-11-24T22:24:57.951Z,21.13
2022-11-24T22:27:24.621Z,17.25
2022-11-24T22:29:54.085Z,20.33
2022-11-24T22:32:20.911Z,17.25
2022-11-24T22:34:47.423Z,12.10
2022-11-24T22:37:14.003Z,15.23
2022-11-24T22:39:41.883Z,14.57
2022-11-24T22:42:08.550Z,14.23
2022-11-24T22:44:35.218Z,16.67
2022-11-24T22:47:01.931Z,14.10
2022-11-24T22:49:28.553Z,14.98
2022-11-24T22:51:55.073Z,17.52
2022-11-24T22:54:21.773Z,19.23
2022-11-24T22:56:49.733Z,17.65
2022-11-24T22:59:16.282Z,16.80
2022-11-24T23:01:42.820Z,18.83
2022-11-24T23:04:09.366Z,16.65
2022-11-24T23:06:35.923Z,16.48
2022-11-24T23:09:04.027Z,16.60
2022-11-24T23:11:37.731Z,14.47
2022-11-24T23:14:07.524Z,16.23
2022-11-24T23:16:34.167Z,11.52
2022-11-24T23:19:00.685Z,14.75
2022-11-24T23:21:28.464Z,13.98
2022-11-24T23:23:55.998Z,16.53
2022-11-24T23:26:23.985Z,14.02
2022-11-24T23:28:50.820Z,13.95
2022-11-24T23:31:20.508Z,13.40
2022-11-24T23:33:47.748Z,14.27
2022-11-24T23:36:15.718Z,11.33
2022-11-24T23:38:43.560Z,11.57
2022-11-24T23:41:11.535Z,12.95
2022-11-24T23:43:39.846Z,9.63
2022-11-24T23:46:08.095Z,10.80
2022-11-24T23:48:36.578Z,15.57
2022-11-24T23:51:04.374Z,16.42
2022-11-24T23:53:31.380Z,15.65
2022-11-24T23:55:57.883Z,7.70
2022-11-24T23:58:24.560Z,9.55
